sensor_id;sensor_type;location;lat;lon;timestamp;pressure;altitude;pressure_sealevel;temperature;humidity
49841;BME280;35738;49.890;5.930;2022-07-29T00:02:28;95620.69;;;18.02;49.66
49841;BME280;35738;49.890;5.930;2022-07-29T00:04:56;95621.88;;;18.01;49.70
49841;BME280;35738;49.890;5.930;2022-07-29T00:07:22;95628.22;;;17.98;49.75
49841;BME280;35738;49.890;5.930;2022-07-29T00:09:49;95615.50;;;18.01;49.59
49841;BME280;35738;49.890;5.930;2022-07-29T00:12:23;95618.69;;;17.99;49.80
49841;BME280;35738;49.890;5.930;2022-07-29T00:14:52;95623.41;;;17.95;49.78
49841;BME280;35738;49.890;5.930;2022-07-29T00:17:19;95612.66;;;17.94;49.76
49841;BME280;35738;49.890;5.930;2022-07-29T00:19:46;95609.91;;;17.97;49.00
49841;BME280;35738;49.890;5.930;2022-07-29T00:22:13;95610.31;;;17.99;49.59
49841;BME280;35738;49.890;5.930;2022-07-29T00:24:40;95603.47;;;17.90;49.90
49841;BME280;35738;49.890;5.930;2022-07-29T00:27:07;95601.41;;;17.83;49.30
49841;BME280;35738;49.890;5.930;2022-07-29T00:29:34;95600.25;;;17.84;49.80
49841;BME280;35738;49.890;5.930;2022-07-29T00:32:01;95600.56;;;17.79;50.31
49841;BME280;35738;49.890;5.930;2022-07-29T00:34:28;95588.19;;;17.73;50.09
49841;BME280;35738;49.890;5.930;2022-07-29T00:37:14;95603.69;;;17.74;50.04
49841;BME280;35738;49.890;5.930;2022-07-29T00:39:41;95593.75;;;17.73;50.07
49841;BME280;35738;49.890;5.930;2022-07-29T00:42:07;95585.81;;;17.75;50.18
49841;BME280;35738;49.890;5.930;2022-07-29T00:44:39;95586.56;;;17.68;50.29
49841;BME280;35738;49.890;5.930;2022-07-29T00:47:09;95585.31;;;17.66;50.23
49841;BME280;35738;49.890;5.930;2022-07-29T00:49:36;95581.28;;;17.60;50.41
49841;BME280;35738;49.890;5.930;2022-07-29T00:52:05;95572.53;;;17.58;50.39
49841;BME280;35738;49.890;5.930;2022-07-29T00:54:34;95572.13;;;17.59;50.23
49841;BME280;35738;49.890;5.930;2022-07-29T00:57:06;95572.72;;;17.38;51.30
49841;BME280;35738;49.890;5.930;2022-07-29T00:59:34;95567.13;;;17.35;50.88
49841;BME280;35738;49.890;5.930;2022-07-29T01:02:04;95573.06;;;17.33;51.02
49841;BME280;35738;49.890;5.930;2022-07-29T01:04:31;95575.06;;;17.36;51.34
49841;BME280;35738;49.890;5.930;2022-07-29T01:07:01;95579.03;;;17.35;51.05
49841;BME280;35738;49.890;5.930;2022-07-29T01:09:28;95576.00;;;17.47;50.85
49841;BME280;35738;49.890;5.930;2022-07-29T01:12:19;95578.63;;;17.33;51.27
49841;BME280;35738;49.890;5.930;2022-07-29T01:14:48;95575.53;;;17.42;50.77
49841;BME280;35738;49.890;5.930;2022-07-29T01:20:23;95569.63;;;17.47;50.86
49841;BME280;35738;49.890;5.930;2022-07-29T01:34:45;95568.06;;;17.50;50.69
49841;BME280;35738;49.890;5.930;2022-07-29T01:37:22;95570.47;;;17.51;49.96
49841;BME280;35738;49.890;5.930;2022-07-29T01:39:52;95568.06;;;17.50;50.56
49841;BME280;35738;49.890;5.930;2022-07-29T01:42:30;95572.41;;;17.47;50.47
49841;BME280;35738;49.890;5.930;2022-07-29T01:45:17;95566.47;;;17.48;50.24
49841;BME280;35738;49.890;5.930;2022-07-29T01:51:20;95570.44;;;17.47;50.29
49841;BME280;35738;49.890;5.930;2022-07-29T01:54:35;95567.19;;;17.42;50.66
49841;BME280;35738;49.890;5.930;2022-07-29T01:56:43;95558.47;;;17.43;50.38
49841;BME280;35738;49.890;5.930;2022-07-29T01:59:11;95565.19;;;17.39;50.24
49841;BME280;35738;49.890;5.930;2022-07-29T02:01:39;95556.41;;;17.37;50.47
49841;BME280;35738;49.890;5.930;2022-07-29T02:04:09;95555.16;;;17.31;50.57
49841;BME280;35738;49.890;5.930;2022-07-29T02:06:58;95549.56;;;17.27;50.93
49841;BME280;35738;49.890;5.930;2022-07-29T02:09:28;95556.72;;;17.28;50.62
49841;BME280;35738;49.890;5.930;2022-07-29T02:11:56;95555.13;;;17.27;50.46
49841;BME280;35738;49.890;5.930;2022-07-29T02:14:24;95547.59;;;17.28;51.10
49841;BME280;35738;49.890;5.930;2022-07-29T02:16:55;95553.53;;;17.26;51.10
49841;BME280;35738;49.890;5.930;2022-07-29T02:19:25;95548.78;;;17.27;50.73
49841;BME280;35738;49.890;5.930;2022-07-29T02:21:56;95559.03;;;17.23;50.61
49841;BME280;35738;49.890;5.930;2022-07-29T02:24:25;95551.94;;;17.25;50.65
49841;BME280;35738;49.890;5.930;2022-07-29T02:26:55;95566.19;;;17.24;50.82
49841;BME280;35738;49.890;5.930;2022-07-29T02:29:25;95555.50;;;17.26;50.86
49841;BME280;35738;49.890;5.930;2022-07-29T02:31:53;95560.59;;;17.20;50.87
49841;BME280;35738;49.890;5.930;2022-07-29T02:34:21;95559.88;;;17.27;50.69
49841;BME280;35738;49.890;5.930;2022-07-29T02:36:50;95563.75;;;17.19;51.21
49841;BME280;35738;49.890;5.930;2022-07-29T02:39:18;95563.75;;;17.19;50.89
49841;BME280;35738;49.890;5.930;2022-07-29T02:41:52;95565.38;;;17.20;50.97
49841;BME280;35738;49.890;5.930;2022-07-29T02:44:24;95562.50;;;17.12;51.00
49841;BME280;35738;49.890;5.930;2022-07-29T02:47:20;95560.94;;;17.15;51.05
49841;BME280;35738;49.890;5.930;2022-07-29T02:52:47;95561.22;;;17.06;51.35
49841;BME280;35738;49.890;5.930;2022-07-29T02:55:34;95568.66;;;16.99;51.61
49841;BME280;35738;49.890;5.930;2022-07-29T02:58:18;95565.03;;;16.95;51.86
49841;BME280;35738;49.890;5.930;2022-07-29T03:00:50;95575.25;;;16.87;51.95
49841;BME280;35738;49.890;5.930;2022-07-29T03:03:18;95560.09;;;16.81;52.00
49841;BME280;35738;49.890;5.930;2022-07-29T03:05:46;95556.09;;;16.78;52.16
49841;BME280;35738;49.890;5.930;2022-07-29T03:08:14;95563.16;;;16.72;52.24
49841;BME280;35738;49.890;5.930;2022-07-29T03:10:44;95567.06;;;16.68;52.52
49841;BME280;35738;49.890;5.930;2022-07-29T03:13:12;95562.56;;;16.60;52.60
49841;BME280;35738;49.890;5.930;2022-07-29T03:15:42;95560.06;;;16.51;52.60
49841;BME280;35738;49.890;5.930;2022-07-29T03:18:10;95555.16;;;16.41;53.26
49841;BME280;35738;49.890;5.930;2022-07-29T03:20:38;95556.34;;;16.40;53.57
49841;BME280;35738;49.890;5.930;2022-07-29T03:23:05;95557.75;;;16.30;53.91
49841;BME280;35738;49.890;5.930;2022-07-29T03:25:32;95551.41;;;16.30;53.90
49841;BME280;35738;49.890;5.930;2022-07-29T03:27:58;95555.34;;;16.29;53.37
49841;BME280;35738;49.890;5.930;2022-07-29T03:30:25;95555.25;;;16.21;54.58
49841;BME280;35738;49.890;5.930;2022-07-29T03:32:53;95552.81;;;16.16;54.64
49841;BME280;35738;49.890;5.930;2022-07-29T03:35:21;95561.75;;;16.06;54.53
49841;BME280;35738;49.890;5.930;2022-07-29T03:37:49;95551.84;;;16.05;54.40
49841;BME280;35738;49.890;5.930;2022-07-29T03:40:22;95545.00;;;15.99;54.85
49841;BME280;35738;49.890;5.930;2022-07-29T03:42:51;95549.63;;;15.92;55.31
49841;BME280;35738;49.890;5.930;2022-07-29T03:45:20;95549.28;;;15.93;54.52
49841;BME280;35738;49.890;5.930;2022-07-29T03:47:56;95550.88;;;15.94;54.37
49841;BME280;35738;49.890;5.930;2022-07-29T03:50:27;95551.19;;;15.89;55.07
49841;BME280;35738;49.890;5.930;2022-07-29T03:52:55;95548.53;;;15.96;54.26
49841;BME280;35738;49.890;5.930;2022-07-29T03:55:22;95549.28;;;15.93;54.66
49841;BME280;35738;49.890;5.930;2022-07-29T03:57:49;95546.88;;;15.92;54.33
49841;BME280;35738;49.890;5.930;2022-07-29T04:00:16;95548.72;;;15.84;54.92
49841;BME280;35738;49.890;5.930;2022-07-29T04:02:44;95552.97;;;15.78;55.01
49841;BME280;35738;49.890;5.930;2022-07-29T04:05:15;95549.78;;;15.76;55.38
49841;BME280;35738;49.890;5.930;2022-07-29T04:07:48;95548.91;;;15.72;55.06
49841;BME280;35738;49.890;5.930;2022-07-29T04:10:17;95549.59;;;15.65;55.84
49841;BME280;35738;49.890;5.930;2022-07-29T04:12:56;95551.03;;;15.59;56.17
49841;BME280;35738;49.890;5.930;2022-07-29T04:15:24;95555.63;;;15.51;55.85
49841;BME280;35738;49.890;5.930;2022-07-29T04:17:56;95554.78;;;15.47;56.49
49841;BME280;35738;49.890;5.930;2022-07-29T04:20:24;95558.84;;;15.53;55.79
49841;BME280;35738;49.890;5.930;2022-07-29T04:22:53;95556.25;;;15.61;56.13
49841;BME280;35738;49.890;5.930;2022-07-29T04:25:20;95554.84;;;15.70;54.74
49841;BME280;35738;49.890;5.930;2022-07-29T04:27:46;95565.31;;;15.80;54.50
49841;BME280;35738;49.890;5.930;2022-07-29T04:30:30;95562.91;;;15.79;54.53
49841;BME280;35738;49.890;5.930;2022-07-29T04:32:57;95562.16;;;15.82;55.02
49841;BME280;35738;49.890;5.930;2022-07-29T04:35:24;95560.25;;;15.86;54.49
49841;BME280;35738;49.890;5.930;2022-07-29T04:37:51;95562.28;;;15.89;54.74
49841;BME280;35738;49.890;5.930;2022-07-29T04:40:18;95566.75;;;15.97;54.39
49841;BME280;35738;49.890;5.930;2022-07-29T04:42:45;95568.47;;;16.05;54.01
49841;BME280;35738;49.890;5.930;2022-07-29T04:45:13;95569.53;;;15.97;54.04
49841;BME280;35738;49.890;5.930;2022-07-29T04:47:41;95580.72;;;15.78;54.82
49841;BME280;35738;49.890;5.930;2022-07-29T04:50:09;95592.44;;;15.29;58.74
49841;BME280;35738;49.890;5.930;2022-07-29T04:52:36;95591.25;;;14.72;64.09
49841;BME280;35738;49.890;5.930;2022-07-29T04:55:04;95593.84;;;14.46;66.79
49841;BME280;35738;49.890;5.930;2022-07-29T04:57:32;95596.97;;;14.28;68.83
49841;BME280;35738;49.890;5.930;2022-07-29T04:59:59;95602.63;;;14.16;70.40
49841;BME280;35738;49.890;5.930;2022-07-29T05:02:26;95602.97;;;14.15;70.72
49841;BME280;35738;49.890;5.930;2022-07-29T05:04:53;95604.66;;;14.19;70.88
49841;BME280;35738;49.890;5.930;2022-07-29T05:07:19;95606.44;;;14.27;69.17
49841;BME280;35738;49.890;5.930;2022-07-29T05:09:46;95601.88;;;14.35;68.90
49841;BME280;35738;49.890;5.930;2022-07-29T05:12:13;95606.22;;;14.52;67.75
49841;BME280;35738;49.890;5.930;2022-07-29T05:14:40;95611.72;;;14.68;66.85
49841;BME280;35738;49.890;5.930;2022-07-29T05:17:06;95613.63;;;14.83;65.26
49841;BME280;35738;49.890;5.930;2022-07-29T05:19:34;95600.56;;;14.99;64.69
49841;BME280;35738;49.890;5.930;2022-07-29T05:22:05;95603.59;;;15.13;64.42
49841;BME280;35738;49.890;5.930;2022-07-29T05:24:32;95609.66;;;15.19;64.62
49841;BME280;35738;49.890;5.930;2022-07-29T05:26:59;95608.25;;;15.29;62.97
49841;BME280;35738;49.890;5.930;2022-07-29T05:29:26;95608.31;;;15.32;62.13
49841;BME280;35738;49.890;5.930;2022-07-29T05:32:11;95599.41;;;15.42;62.68
49841;BME280;35738;49.890;5.930;2022-07-29T05:34:38;95606.59;;;15.63;60.54
49841;BME280;35738;49.890;5.930;2022-07-29T05:37:18;95608.94;;;15.83;60.24
49841;BME280;35738;49.890;5.930;2022-07-29T05:39:45;95617.03;;;16.18;59.45
49841;BME280;35738;49.890;5.930;2022-07-29T05:42:16;95609.28;;;16.80;57.73
49841;BME280;35738;49.890;5.930;2022-07-29T05:44:42;95609.28;;;17.40;56.28
49841;BME280;35738;49.890;5.930;2022-07-29T05:47:09;95613.13;;;18.03;53.99
49841;BME280;35738;49.890;5.930;2022-07-29T05:49:36;95623.09;;;18.55;51.70
49841;BME280;35738;49.890;5.930;2022-07-29T05:52:03;95626.81;;;19.35;50.02
49841;BME280;35738;49.890;5.930;2022-07-29T05:54:29;95610.25;;;19.92;47.96
49841;BME280;35738;49.890;5.930;2022-07-29T05:56:56;95619.44;;;19.96;47.83
49841;BME280;35738;49.890;5.930;2022-07-29T05:59:23;95628.66;;;20.18;47.18
49841;BME280;35738;49.890;5.930;2022-07-29T06:01:55;95629.06;;;20.17;46.69
49841;BME280;35738;49.890;5.930;2022-07-29T06:04:23;95625.06;;;20.11;47.33
49841;BME280;35738;49.890;5.930;2022-07-29T06:06:51;95633.50;;;20.53;46.60
49841;BME280;35738;49.890;5.930;2022-07-29T06:09:18;95643.75;;;21.42;44.67
49841;BME280;35738;49.890;5.930;2022-07-29T06:11:47;95637.66;;;21.72;43.68
49841;BME280;35738;49.890;5.930;2022-07-29T06:14:14;95638.88;;;21.67;44.09
49841;BME280;35738;49.890;5.930;2022-07-29T06:16:41;95643.50;;;21.99;43.09
49841;BME280;35738;49.890;5.930;2022-07-29T06:19:09;95630.19;;;22.20;42.39
49841;BME280;35738;49.890;5.930;2022-07-29T06:21:36;95627.84;;;22.08;42.98
49841;BME280;35738;49.890;5.930;2022-07-29T06:24:07;95631.25;;;22.41;42.08
49841;BME280;35738;49.890;5.930;2022-07-29T06:26:34;95628.56;;;22.75;41.43
49841;BME280;35738;49.890;5.930;2022-07-29T06:29:05;95634.00;;;21.82;42.55
49841;BME280;35738;49.890;5.930;2022-07-29T06:31:32;95625.47;;;20.94;44.95
49841;BME280;35738;49.890;5.930;2022-07-29T06:33:59;95627.41;;;22.17;42.82
49841;BME280;35738;49.890;5.930;2022-07-29T06:36:26;95637.50;;;22.04;42.84
49841;BME280;35738;49.890;5.930;2022-07-29T06:38:53;95629.00;;;22.70;41.95
49841;BME280;35738;49.890;5.930;2022-07-29T06:41:21;95631.53;;;23.02;41.15
49841;BME280;35738;49.890;5.930;2022-07-29T06:43:49;95638.59;;;23.55;40.21
49841;BME280;35738;49.890;5.930;2022-07-29T06:46:22;95638.94;;;23.23;40.74
49841;BME280;35738;49.890;5.930;2022-07-29T06:48:50;95643.75;;;23.22;40.69
49841;BME280;35738;49.890;5.930;2022-07-29T06:51:17;95632.22;;;22.13;41.75
49841;BME280;35738;49.890;5.930;2022-07-29T06:53:50;95630.44;;;22.44;40.92
49841;BME280;35738;49.890;5.930;2022-07-29T06:56:29;95635.06;;;22.65;41.03
49841;BME280;35738;49.890;5.930;2022-07-29T06:59:06;95633.94;;;21.93;42.67
49841;BME280;35738;49.890;5.930;2022-07-29T07:01:33;95633.22;;;22.44;41.63
49841;BME280;35738;49.890;5.930;2022-07-29T07:04:00;95636.16;;;22.74;41.58
49841;BME280;35738;49.890;5.930;2022-07-29T07:06:27;95639.75;;;22.78;41.07
49841;BME280;35738;49.890;5.930;2022-07-29T07:08:54;95631.63;;;22.91;40.60
49841;BME280;35738;49.890;5.930;2022-07-29T07:11:21;95649.13;;;23.09;39.94
49841;BME280;35738;49.890;5.930;2022-07-29T07:13:48;95647.78;;;23.59;39.25
49841;BME280;35738;49.890;5.930;2022-07-29T07:16:14;95647.34;;;22.30;40.42
49841;BME280;35738;49.890;5.930;2022-07-29T07:18:43;95646.97;;;22.76;40.04
49841;BME280;35738;49.890;5.930;2022-07-29T07:21:12;95647.13;;;23.06;39.76
49841;BME280;35738;49.890;5.930;2022-07-29T07:23:45;95649.84;;;23.17;39.36
49841;BME280;35738;49.890;5.930;2022-07-29T07:26:12;95651.81;;;23.58;38.49
49841;BME280;35738;49.890;5.930;2022-07-29T07:28:39;95650.97;;;23.23;38.95
49841;BME280;35738;49.890;5.930;2022-07-29T07:31:06;95665.28;;;22.91;39.56
49841;BME280;35738;49.890;5.930;2022-07-29T07:33:32;95656.50;;;22.37;39.70
49841;BME280;35738;49.890;5.930;2022-07-29T07:35:59;95655.66;;;21.67;42.12
49841;BME280;35738;49.890;5.930;2022-07-29T07:38:26;95656.38;;;21.85;43.00
49841;BME280;35738;49.890;5.930;2022-07-29T07:40:54;95655.72;;;21.46;43.30
49841;BME280;35738;49.890;5.930;2022-07-29T07:43:21;95660.97;;;21.15;43.94
49841;BME280;35738;49.890;5.930;2022-07-29T07:45:48;95653.41;;;20.30;46.02
49841;BME280;35738;49.890;5.930;2022-07-29T07:48:15;95652.25;;;20.56;44.96
49841;BME280;35738;49.890;5.930;2022-07-29T07:50:42;95655.81;;;21.03;44.36
49841;BME280;35738;49.890;5.930;2022-07-29T07:53:11;95653.44;;;20.77;44.45
49841;BME280;35738;49.890;5.930;2022-07-29T07:55:41;95653.00;;;21.10;43.82
49841;BME280;35738;49.890;5.930;2022-07-29T07:58:28;95655.38;;;21.19;43.53
49841;BME280;35738;49.890;5.930;2022-07-29T08:00:55;95650.88;;;21.53;43.08
49841;BME280;35738;49.890;5.930;2022-07-29T08:03:22;95655.72;;;21.46;42.61
49841;BME280;35738;49.890;5.930;2022-07-29T08:05:49;95653.78;;;21.18;43.28
49841;BME280;35738;49.890;5.930;2022-07-29T08:08:18;95652.66;;;20.87;43.69
49841;BME280;35738;49.890;5.930;2022-07-29T08:10:45;95664.22;;;20.60;44.77
49841;BME280;35738;49.890;5.930;2022-07-29T08:13:30;95661.03;;;20.83;44.15
49841;BME280;35738;49.890;5.930;2022-07-29T08:15:59;95659.03;;;20.98;43.90
49841;BME280;35738;49.890;5.930;2022-07-29T08:18:29;95662.97;;;21.25;43.03
49841;BME280;35738;49.890;5.930;2022-07-29T08:20:57;95660.59;;;21.13;43.60
49841;BME280;35738;49.890;5.930;2022-07-29T08:25:50;95657.72;;;21.45;42.70
49841;BME280;35738;49.890;5.930;2022-07-29T08:28:20;95668.53;;;21.40;42.71
49841;BME280;35738;49.890;5.930;2022-07-29T08:30:51;95664.59;;;21.12;43.15
49841;BME280;35738;49.890;5.930;2022-07-29T08:33:18;95657.75;;;21.38;43.23
49841;BME280;35738;49.890;5.930;2022-07-29T08:35:44;95655.72;;;21.46;43.44
49841;BME280;35738;49.890;5.930;2022-07-29T08:38:11;95667.72;;;21.43;42.57
49841;BME280;35738;49.890;5.930;2022-07-29T08:40:39;95666.88;;;21.60;42.30
49841;BME280;35738;49.890;5.930;2022-07-29T08:43:07;95662.88;;;21.61;42.08
49841;BME280;35738;49.890;5.930;2022-07-29T08:45:42;95659.06;;;22.07;41.53
49841;BME280;35738;49.890;5.930;2022-07-29T08:48:21;95657.44;;;22.13;41.33
49841;BME280;35738;49.890;5.930;2022-07-29T08:50:52;95656.97;;;22.22;41.53
49841;BME280;35738;49.890;5.930;2022-07-29T08:53:24;95663.38;;;22.22;41.28
49841;BME280;35738;49.890;5.930;2022-07-29T08:55:52;95663.81;;;22.17;41.39
49841;BME280;35738;49.890;5.930;2022-07-29T08:58:20;95665.06;;;22.09;41.60
49841;BME280;35738;49.890;5.930;2022-07-29T09:00:52;95655.28;;;22.38;41.13
49841;BME280;35738;49.890;5.930;2022-07-29T09:03:23;95659.19;;;22.51;40.14
49841;BME280;35738;49.890;5.930;2022-07-29T09:05:51;95668.66;;;22.68;40.62
49841;BME280;35738;49.890;5.930;2022-07-29T09:08:18;95663.34;;;22.85;40.17
49841;BME280;35738;49.890;5.930;2022-07-29T09:10:46;95664.78;;;22.55;40.58
49841;BME280;35738;49.890;5.930;2022-07-29T09:13:13;95667.47;;;22.66;40.27
49841;BME280;35738;49.890;5.930;2022-07-29T09:15:40;95672.72;;;22.60;40.69
49841;BME280;35738;49.890;5.930;2022-07-29T09:18:07;95674.91;;;22.38;40.93
49841;BME280;35738;49.890;5.930;2022-07-29T09:20:54;95671.34;;;22.31;40.72
49841;BME280;35738;49.890;5.930;2022-07-29T09:23:40;95671.22;;;22.48;40.54
49841;BME280;35738;49.890;5.930;2022-07-29T09:26:08;95674.19;;;22.79;40.08
49841;BME280;35738;49.890;5.930;2022-07-29T09:28:41;95680.56;;;22.87;39.90
49841;BME280;35738;49.890;5.930;2022-07-29T09:31:08;95667.53;;;22.59;39.95
49841;BME280;35738;49.890;5.930;2022-07-29T09:33:35;95672.72;;;22.60;40.57
49841;BME280;35738;49.890;5.930;2022-07-29T09:36:09;95677.59;;;22.52;40.25
49841;BME280;35738;49.890;5.930;2022-07-29T09:38:36;95672.00;;;22.52;40.66
49841;BME280;35738;49.890;5.930;2022-07-29T09:41:04;95671.00;;;22.80;39.35
49841;BME280;35738;49.890;5.930;2022-07-29T09:43:33;95672.59;;;22.78;39.77
49841;BME280;35738;49.890;5.930;2022-07-29T09:46:20;95670.19;;;22.80;39.86
49841;BME280;35738;49.890;5.930;2022-07-29T09:49:08;95668.97;;;22.81;39.62
49841;BME280;35738;49.890;5.930;2022-07-29T09:51:43;95674.78;;;23.08;39.24
49841;BME280;35738;49.890;5.930;2022-07-29T09:54:42;95669.38;;;22.83;39.32
49841;BME280;35738;49.890;5.930;2022-07-29T09:57:32;95666.66;;;23.17;39.37
49841;BME280;35738;49.890;5.930;2022-07-29T10:00:10;95677.19;;;23.02;38.35
49841;BME280;35738;49.890;5.930;2022-07-29T10:02:39;95661.84;;;22.69;39.13
49841;BME280;35738;49.890;5.930;2022-07-29T10:05:20;95662.09;;;22.89;39.50
49841;BME280;35738;49.890;5.930;2022-07-29T10:07:51;95667.00;;;23.60;39.82
49841;BME280;35738;49.890;5.930;2022-07-29T10:12:56;95664.56;;;24.27;37.21
49841;BME280;35738;49.890;5.930;2022-07-29T10:15:35;95672.31;;;23.89;36.76
49841;BME280;35738;49.890;5.930;2022-07-29T10:18:11;95668.72;;;24.15;36.58
49841;BME280;35738;49.890;5.930;2022-07-29T10:20:42;95663.00;;;24.22;36.40
49841;BME280;35738;49.890;5.930;2022-07-29T10:23:09;95659.13;;;24.43;36.20
49841;BME280;35738;49.890;5.930;2022-07-29T10:25:36;95655.19;;;24.64;35.95
49841;BME280;35738;49.890;5.930;2022-07-29T10:28:05;95668.16;;;24.81;36.08
49841;BME280;35738;49.890;5.930;2022-07-29T10:30:32;95664.97;;;24.56;35.85
49841;BME280;35738;49.890;5.930;2022-07-29T10:41:02;95654.00;;;24.88;35.37
49841;BME280;35738;49.890;5.930;2022-07-29T10:43:55;95666.47;;;24.87;35.43
49841;BME280;35738;49.890;5.930;2022-07-29T10:46:24;95665.59;;;24.67;35.56
49841;BME280;35738;49.890;5.930;2022-07-29T10:49:08;95654.34;;;24.67;34.93
49841;BME280;35738;49.890;5.930;2022-07-29T10:54:17;95663.44;;;25.01;34.86
49841;BME280;35738;49.890;5.930;2022-07-29T10:56:45;95669.63;;;24.89;34.45
49841;BME280;35738;49.890;5.930;2022-07-29T11:01:48;95668.91;;;24.85;33.61
49841;BME280;35738;49.890;5.930;2022-07-29T11:07:13;95667.28;;;25.11;35.94
49841;BME280;35738;49.890;5.930;2022-07-29T11:12:46;95669.25;;;24.64;36.47
49841;BME280;35738;49.890;5.930;2022-07-29T11:15:18;95670.72;;;24.45;36.37
49841;BME280;35738;49.890;5.930;2022-07-29T11:20:45;95670.69;;;24.49;36.74
49841;BME280;35738;49.890;5.930;2022-07-29T11:23:18;95670.44;;;24.66;36.57
49841;BME280;35738;49.890;5.930;2022-07-29T11:34:22;95671.50;;;25.23;34.41
49841;BME280;35738;49.890;5.930;2022-07-29T11:45:00;95673.13;;;24.47;36.83
49841;BME280;35738;49.890;5.930;2022-07-29T11:47:56;95682.97;;;24.31;36.95
49841;BME280;35738;49.890;5.930;2022-07-29T11:50:48;95673.56;;;24.15;37.44
49841;BME280;35738;49.890;5.930;2022-07-29T11:53:16;95665.81;;;24.53;37.33
49841;BME280;35738;49.890;5.930;2022-07-29T11:55:43;95661.81;;;24.50;36.60
49841;BME280;35738;49.890;5.930;2022-07-29T11:58:31;95671.53;;;24.46;37.08
49841;BME280;35738;49.890;5.930;2022-07-29T12:01:00;95662.59;;;24.78;36.08
49841;BME280;35738;49.890;5.930;2022-07-29T12:03:30;95666.66;;;25.00;35.85
49841;BME280;35738;49.890;5.930;2022-07-29T12:06:02;95664.44;;;24.88;35.78
49841;BME280;35738;49.890;5.930;2022-07-29T12:08:40;95661.53;;;25.61;34.66
49841;BME280;35738;49.890;5.930;2022-07-29T12:11:15;95658.94;;;26.10;34.22
49841;BME280;35738;49.890;5.930;2022-07-29T12:13:43;95662.72;;;25.84;34.29
49841;BME280;35738;49.890;5.930;2022-07-29T12:16:10;95662.75;;;26.00;34.14
49841;BME280;35738;49.890;5.930;2022-07-29T12:18:40;95663.34;;;26.11;34.26
49841;BME280;35738;49.890;5.930;2022-07-29T12:21:10;95664.84;;;26.36;34.24
49841;BME280;35738;49.890;5.930;2022-07-29T12:23:37;95667.84;;;26.45;34.25
49841;BME280;35738;49.890;5.930;2022-07-29T12:26:06;95667.59;;;26.19;33.85
49841;BME280;35738;49.890;5.930;2022-07-29T12:28:47;95665.16;;;25.82;34.74
49841;BME280;35738;49.890;5.930;2022-07-29T12:31:16;95668.84;;;25.98;33.79
49841;BME280;35738;49.890;5.930;2022-07-29T12:34:03;95673.69;;;25.98;34.62
49841;BME280;35738;49.890;5.930;2022-07-29T12:36:30;95671.97;;;26.04;35.24
49841;BME280;35738;49.890;5.930;2022-07-29T12:38:56;95664.97;;;25.49;35.18
49841;BME280;35738;49.890;5.930;2022-07-29T12:41:24;95673.63;;;24.92;36.03
49841;BME280;35738;49.890;5.930;2022-07-29T12:43:54;95682.81;;;25.43;36.05
49841;BME280;35738;49.890;5.930;2022-07-29T12:46:21;95673.00;;;25.51;35.78
49841;BME280;35738;49.890;5.930;2022-07-29T12:48:51;95681.91;;;25.89;34.18
49841;BME280;35738;49.890;5.930;2022-07-29T12:51:38;95683.38;;;26.17;33.85
49841;BME280;35738;49.890;5.930;2022-07-29T12:54:15;95676.22;;;26.12;33.05
49841;BME280;35738;49.890;5.930;2022-07-29T12:56:43;95680.41;;;26.04;34.30
49841;BME280;35738;49.890;5.930;2022-07-29T12:59:19;95678.59;;;25.74;34.37
49841;BME280;35738;49.890;5.930;2022-07-29T13:01:51;95677.50;;;25.68;35.47
49841;BME280;35738;49.890;5.930;2022-07-29T13:04:28;95674.72;;;25.45;35.25
49841;BME280;35738;49.890;5.930;2022-07-29T13:07:05;95671.63;;;25.16;36.52
49841;BME280;35738;49.890;5.930;2022-07-29T13:09:41;95678.09;;;25.36;35.41
49841;BME280;35738;49.890;5.930;2022-07-29T13:12:10;95680.59;;;25.54;35.11
49841;BME280;35738;49.890;5.930;2022-07-29T13:14:46;95693.63;;;26.07;34.62
49841;BME280;35738;49.890;5.930;2022-07-29T13:17:24;95679.31;;;26.38;33.24
49841;BME280;35738;49.890;5.930;2022-07-29T13:20:07;95687.06;;;26.50;32.72
49841;BME280;35738;49.890;5.930;2022-07-29T13:22:38;95704.72;;;26.54;33.00
49841;BME280;35738;49.890;5.930;2022-07-29T13:25:06;95700.06;;;25.68;34.65
49841;BME280;35738;49.890;5.930;2022-07-29T13:27:38;95695.44;;;25.78;34.10
49841;BME280;35738;49.890;5.930;2022-07-29T13:30:08;95704.94;;;24.94;35.59
49841;BME280;35738;49.890;5.930;2022-07-29T13:32:36;95698.66;;;25.10;34.98
49841;BME280;35738;49.890;5.930;2022-07-29T13:35:08;95705.94;;;25.54;35.21
49841;BME280;35738;49.890;5.930;2022-07-29T13:37:35;95707.28;;;25.69;34.34
49841;BME280;35738;49.890;5.930;2022-07-29T13:40:06;95697.94;;;26.32;33.46
49841;BME280;35738;49.890;5.930;2022-07-29T13:42:35;95707.38;;;26.61;33.31
49841;BME280;35738;49.890;5.930;2022-07-29T13:45:03;95689.91;;;26.30;33.04
49841;BME280;35738;49.890;5.930;2022-07-29T13:47:30;95708.84;;;25.70;34.19
49841;BME280;35738;49.890;5.930;2022-07-29T13:50:00;95713.41;;;25.84;33.79
49841;BME280;35738;49.890;5.930;2022-07-29T13:52:27;95705.47;;;26.18;33.55
49841;BME280;35738;49.890;5.930;2022-07-29T13:54:54;95700.84;;;25.69;34.38
49841;BME280;35738;49.890;5.930;2022-07-29T13:57:20;95699.84;;;24.85;35.57
49841;BME280;35738;49.890;5.930;2022-07-29T13:59:47;95701.44;;;24.86;35.78
49841;BME280;35738;49.890;5.930;2022-07-29T14:02:19;95704.91;;;25.44;35.28
49841;BME280;35738;49.890;5.930;2022-07-29T14:04:51;95707.13;;;25.76;34.21
49841;BME280;35738;49.890;5.930;2022-07-29T14:07:18;95704.69;;;26.18;33.45
49841;BME280;35738;49.890;5.930;2022-07-29T14:09:45;95710.91;;;26.09;33.88
49841;BME280;35738;49.890;5.930;2022-07-29T14:12:12;95709.06;;;26.75;31.57
49841;BME280;35738;49.890;5.930;2022-07-29T14:14:39;95704.38;;;26.32;32.68
49841;BME280;35738;49.890;5.930;2022-07-29T14:17:06;95704.09;;;26.63;32.63
49841;BME280;35738;49.890;5.930;2022-07-29T14:19:33;95705.75;;;26.44;32.80
49841;BME280;35738;49.890;5.930;2022-07-29T14:22:04;95707.47;;;26.74;32.57
49841;BME280;35738;49.890;5.930;2022-07-29T14:24:32;95705.03;;;26.92;32.34